createdAt,value
2022-08-26T00:03:47.122Z,100153.81
2022-08-26T00:08:49.921Z,100157.16
2022-08-26T00:13:54.340Z,100146.00
2022-08-26T00:18:57.205Z,100152.09
2022-08-26T00:24:00.815Z,100146.84
2022-08-26T00:29:05.593Z,100149.34
2022-08-26T00:34:09.409Z,100147.34
2022-08-26T00:39:12.532Z,100141.69
2022-08-26T00:44:17.540Z,100142.09
2022-08-26T00:49:25.821Z,100149.47
2022-08-26T00:54:34.752Z,100143.38
2022-08-26T00:59:39.176Z,100147.22
2022-08-26T01:04:42.905Z,100140.84
2022-08-26T01:09:48.477Z,100142.50
2022-08-26T01:14:53.685Z,100141.72
2022-08-26T01:20:04.108Z,100141.28
2022-08-26T01:25:08.734Z,100136.72
2022-08-26T01:30:12.589Z,100143.38
2022-08-26T01:35:15.549Z,100150.75
2022-08-26T01:40:25.630Z,100152.88
2022-08-26T01:45:31.532Z,100148.41
2022-08-26T01:50:37.414Z,100150.72
2022-08-26T01:55:45.439Z,100152.44
2022-08-26T02:00:48.913Z,100147.97
2022-08-26T02:05:56.060Z,100154.72
2022-08-26T02:11:02.469Z,100149.00
2022-08-26T02:16:05.807Z,100147.03
2022-08-26T02:21:12.714Z,100153.06
2022-08-26T02:26:19.704Z,100147.59
2022-08-26T02:31:22.542Z,100155.38
2022-08-26T02:36:28.742Z,100139.63
2022-08-26T02:41:33.037Z,100151.44
2022-08-26T02:46:36.368Z,100152.41
2022-08-26T02:51:40.244Z,100139.06
2022-08-26T02:56:47.192Z,100139.72
2022-08-26T03:01:50.368Z,100143.06
2022-08-26T03:06:53.417Z,100125.19
2022-08-26T03:12:00.638Z,100137.03
2022-08-26T03:17:03.436Z,100135.06
2022-08-26T03:22:07.177Z,100133.97
2022-08-26T03:27:11.474Z,100132.19
2022-08-26T03:32:16.734Z,100122.94
2022-08-26T03:37:20.858Z,100118.72
2022-08-26T03:42:25.649Z,100121.94
2022-08-26T03:47:28.515Z,100113.72
2022-08-26T03:52:32.017Z,100123.47
2022-08-26T03:57:36.385Z,100121.81
2022-08-26T04:02:39.537Z,100120.84
2022-08-26T04:07:43.764Z,100122.41
2022-08-26T04:12:48.308Z,100118.44
2022-08-26T04:17:51.283Z,100120.75
2022-08-26T04:22:54.474Z,100121.31
2022-08-26T04:27:58.680Z,100121.69
2022-08-26T04:33:04.434Z,100110.59
2022-08-26T04:38:16.194Z,100116.75
2022-08-26T04:43:20.515Z,100117.38
2022-08-26T04:48:23.359Z,100125.44
2022-08-26T04:53:26.531Z,100129.59
2022-08-26T04:58:31.010Z,100127.50
2022-08-26T05:03:33.802Z,100129.66
2022-08-26T05:08:37.516Z,100129.25
2022-08-26T05:13:42.062Z,100130.75
2022-08-26T05:18:46.328Z,100133.72
2022-08-26T05:23:51.284Z,100125.00
2022-08-26T05:28:57.720Z,100125.78
2022-08-26T05:34:03.676Z,100134.72
2022-08-26T05:39:07.992Z,100136.75
2022-08-26T05:44:18.682Z,100137.97
2022-08-26T05:49:22.521Z,100141.75
2022-08-26T05:54:29.240Z,100138.50
2022-08-26T05:59:33.427Z,100143.28
2022-08-26T06:05:14.621Z,100149.34
2022-08-26T06:10:33.885Z,100139.19
2022-08-26T06:15:42.030Z,100142.88
2022-08-26T06:20:57.127Z,100148.16
2022-08-26T06:26:01.508Z,100143.94
2022-08-26T06:31:07.021Z,100144.53
2022-08-26T06:36:17.219Z,100150.25
2022-08-26T06:41:23.668Z,100154.50
2022-08-26T06:46:28.297Z,100149.34
2022-08-26T06:51:34.570Z,100155.47
2022-08-26T06:56:40.027Z,100160.53
2022-08-26T07:01:45.541Z,100152.78
2022-08-26T07:06:50.142Z,100150.25
2022-08-26T07:11:56.466Z,100154.47
2022-08-26T07:17:01.386Z,100155.09
2022-08-26T07:22:06.935Z,100168.25
2022-08-26T07:27:13.886Z,100176.56
2022-08-26T07:32:22.921Z,100181.25
2022-08-26T07:37:25.981Z,100186.72
2022-08-26T07:42:28.919Z,100189.28
2022-08-26T07:47:33.075Z,100205.34
2022-08-26T07:52:37.557Z,100197.53
2022-08-26T07:57:42.130Z,100192.94
2022-08-26T08:02:46.998Z,100198.69
2022-08-26T08:07:53.414Z,100203.69
2022-08-26T08:12:57.546Z,100202.81
2022-08-26T08:18:04.127Z,100205.22
2022-08-26T08:23:07.177Z,100212.34
2022-08-26T08:28:10.138Z,100202.22
2022-08-26T08:33:14.960Z,100209.44
2022-08-26T08:38:18.073Z,100204.47
2022-08-26T08:43:32.652Z,100204.03
2022-08-26T08:48:46.228Z,100207.03
2022-08-26T08:53:54.551Z,100214.59
2022-08-26T08:59:05.964Z,100215.53
2022-08-26T09:04:30.797Z,100206.28
2022-08-26T09:09:38.776Z,100211.22
2022-08-26T09:14:41.646Z,100217.81
2022-08-26T09:19:52.252Z,100217.34
2022-08-26T09:24:55.187Z,100212.81
2022-08-26T09:30:00.377Z,100213.59
2022-08-26T09:35:08.321Z,100211.38
2022-08-26T09:40:20.395Z,100203.41
2022-08-26T09:45:28.988Z,100201.56
2022-08-26T09:50:37.216Z,100192.84
2022-08-26T09:55:43.515Z,100195.97
2022-08-26T10:00:56.762Z,100191.13
2022-08-26T10:06:04.008Z,100183.09
2022-08-26T10:11:16.127Z,100176.59
2022-08-26T10:16:24.092Z,100169.38
2022-08-26T10:21:36.849Z,100172.69
2022-08-26T10:26:47.580Z,100167.31
2022-08-26T10:31:55.831Z,100163.38
2022-08-26T10:37:14.467Z,100159.25
2022-08-26T10:42:24.659Z,100146.31
2022-08-26T10:47:35.597Z,100144.09
2022-08-26T10:52:53.201Z,100154.38
2022-08-26T10:58:04.730Z,100146.25
2022-08-26T11:03:21.973Z,100155.25
2022-08-26T11:08:30.885Z,100153.91
2022-08-26T11:13:59.949Z,100140.19
2022-08-26T11:19:03.351Z,100146.06
2022-08-26T11:24:08.155Z,100135.59
2022-08-26T11:29:12.261Z,100137.31
2022-08-26T11:34:16.516Z,100128.69
2022-08-26T11:39:25.373Z,100120.31
2022-08-26T11:44:36.906Z,100130.91
2022-08-26T11:49:41.773Z,100113.50
2022-08-26T11:55:06.788Z,100124.63
2022-08-26T12:00:14.231Z,100121.03
2022-08-26T12:05:25.309Z,100106.16
2022-08-26T12:10:33.592Z,100094.06
2022-08-26T12:15:36.858Z,100087.00
2022-08-26T12:20:48.283Z,100083.22
2022-08-26T12:25:55.401Z,100086.00
2022-08-26T12:31:06.956Z,100082.34
2022-08-26T12:36:10.027Z,100074.56
2022-08-26T12:41:34.245Z,100066.50
2022-08-26T12:46:37.486Z,100050.25
2022-08-26T12:51:42.171Z,100059.34
2022-08-26T12:56:46.355Z,100064.91
2022-08-26T13:01:49.665Z,100061.94
2022-08-26T13:07:20.065Z,100058.19
2022-08-26T13:12:30.853Z,100061.25
2022-08-26T13:17:35.790Z,100067.63
2022-08-26T13:22:38.690Z,100064.50
2022-08-26T13:27:43.221Z,100067.38
2022-08-26T13:32:46.063Z,100068.84
2022-08-26T13:37:48.935Z,100070.16
2022-08-26T13:42:53.121Z,100073.19
2022-08-26T13:47:55.910Z,100080.63
2022-08-26T13:52:58.889Z,100067.13
2022-08-26T13:58:03.440Z,100057.91
2022-08-26T14:03:12.607Z,100061.81
2022-08-26T14:08:16.189Z,100063.84
2022-08-26T14:13:20.503Z,100073.47
2022-08-26T14:18:30.396Z,100063.34
2022-08-26T14:23:33.280Z,100070.16
2022-08-26T14:28:37.690Z,100068.88
2022-08-26T14:33:43.853Z,100057.81
2022-08-26T14:38:46.802Z,100045.06
2022-08-26T14:43:57.845Z,100026.50
2022-08-26T14:49:05.216Z,100040.50
2022-08-26T14:54:13.928Z,100049.13
2022-08-26T14:59:20.706Z,100028.41
2022-08-26T15:04:24.775Z,100039.28
2022-08-26T15:09:29.077Z,100017.41
2022-08-26T15:14:33.417Z,100022.34
2022-08-26T15:19:36.223Z,100060.59
2022-08-26T15:24:39.087Z,100072.44
2022-08-26T15:29:43.826Z,100091.47
2022-08-26T15:34:46.701Z,100087.00
2022-08-26T15:39:49.615Z,100086.56
2022-08-26T15:44:55.670Z,100105.97
2022-08-26T15:49:58.484Z,100105.94
2022-08-26T15:55:01.534Z,100105.47
2022-08-26T16:00:07.196Z,100129.72
2022-08-26T16:05:14.604Z,100163.38
2022-08-26T16:10:18.604Z,100209.41
2022-08-26T16:15:22.885Z,100213.72
2022-08-26T16:20:26.088Z,100203.25
2022-08-26T16:25:29.921Z,100198.72
2022-08-26T16:30:34.094Z,100173.44
2022-08-26T16:35:36.862Z,100163.84
2022-08-26T16:40:40.054Z,100158.44
2022-08-26T16:45:44.135Z,100168.69
2022-08-26T16:50:47.063Z,100154.75
2022-08-26T16:55:51.121Z,100143.38
2022-08-26T17:00:55.356Z,100128.97
2022-08-26T17:05:58.360Z,100131.09
2022-08-26T17:11:01.889Z,100129.34
2022-08-26T17:16:08.375Z,100134.63
2022-08-26T17:21:14.527Z,100140.22
2022-08-26T17:26:17.553Z,100135.56
2022-08-26T17:31:22.432Z,100141.28
2022-08-26T17:36:28.062Z,100137.13
2022-08-26T17:41:31.201Z,100141.59
2022-08-26T17:46:38.451Z,100141.28
2022-08-26T17:51:42.057Z,100145.56
2022-08-26T17:56:44.832Z,100163.44
2022-08-26T18:01:49.589Z,100179.97
2022-08-26T18:06:52.430Z,100188.63
2022-08-26T18:11:55.302Z,100185.56
2022-08-26T18:16:59.549Z,100188.63
2022-08-26T18:22:02.350Z,100192.81
2022-08-26T18:27:05.657Z,100212.75
2022-08-26T18:32:09.909Z,100222.59
2022-08-26T18:37:14.461Z,100225.44
2022-08-26T18:42:17.326Z,100227.31
2022-08-26T18:47:21.631Z,100233.28
2022-08-26T18:52:24.838Z,100233.22
2022-08-26T18:57:28.796Z,100234.31
2022-08-26T19:02:34.297Z,100237.44
2022-08-26T19:07:39.626Z,100244.94
2022-08-26T19:12:42.730Z,100240.66
2022-08-26T19:17:48.144Z,100244.88
2022-08-26T19:22:51.034Z,100248.28
2022-08-26T19:27:53.944Z,100255.00
2022-08-26T19:32:58.163Z,100250.03
2022-08-26T19:38:02.575Z,100254.88
2022-08-26T19:43:06.003Z,100246.94
2022-08-26T19:48:11.372Z,100255.78
2022-08-26T19:53:15.411Z,100258.78
2022-08-26T19:58:18.224Z,100266.38
2022-08-26T20:03:23.866Z,100261.06
2022-08-26T20:08:26.765Z,100264.63
2022-08-26T20:13:30.176Z,100275.28
2022-08-26T20:18:52.005Z,100277.19
2022-08-26T20:23:56.314Z,100282.22
2022-08-26T20:28:59.709Z,100280.34
2022-08-26T20:34:05.140Z,100290.69
2022-08-26T20:39:08.886Z,100297.81
2022-08-26T20:44:13.229Z,100297.94
2022-08-26T20:49:18.767Z,100298.78
2022-08-26T20:54:28.147Z,100306.34
2022-08-26T20:59:31.836Z,100316.34
2022-08-26T21:04:36.187Z,100303.69
2022-08-26T21:09:39.017Z,100321.28
2022-08-26T21:14:41.865Z,100324.69
2022-08-26T21:19:46.117Z,100324.94
2022-08-26T21:24:49.057Z,100330.97
2022-08-26T21:29:52.142Z,100318.00
2022-08-26T21:34:57.513Z,100315.78
2022-08-26T21:40:03.548Z,100325.19
2022-08-26T21:45:08.116Z,100317.19
2022-08-26T21:50:13.506Z,100325.84
2022-08-26T21:55:16.409Z,100325.84
2022-08-26T22:00:19.925Z,100330.44
2022-08-26T22:05:24.097Z,100327.94
2022-08-26T22:10:26.933Z,100328.16
2022-08-26T22:15:31.745Z,100334.84
2022-08-26T22:20:36.756Z,100337.75
2022-08-26T22:25:39.661Z,100346.50
2022-08-26T22:30:43.289Z,100350.53
2022-08-26T22:35:52.668Z,100332.28
2022-08-26T22:40:56.613Z,100340.78
2022-08-26T22:45:59.523Z,100333.72
2022-08-26T22:51:03.849Z,100340.56
2022-08-26T22:56:07.356Z,100336.56
2022-08-26T23:01:10.328Z,100339.06
2022-08-26T23:06:14.590Z,100339.06
2022-08-26T23:11:17.433Z,100348.63
2022-08-26T23:16:21.093Z,100341.16
2022-08-26T23:21:25.369Z,100340.97
2022-08-26T23:26:28.252Z,100335.88
2022-08-26T23:31:31.178Z,100329.03
2022-08-26T23:36:35.496Z,100318.50
2022-08-26T23:41:38.393Z,100320.25
2022-08-26T23:46:41.185Z,100320.09
2022-08-26T23:52:02.895Z,100313.41
2022-08-26T23:57:06.864Z,100306.75
